• Join FlightAware (Why Join?)
  • Login
  • US Flag 
06:02AM EDT


 

Airport Tracker/Info


-or-


 

Live Flight TrackerFlight Track Log ✈ N541WG ✈ 04-May-2012 ✈ KADS - KICT

Flight Track Log - Related Links

Times and Time Zones

All times are in EDT time to prevent confusion due to time zone crossing. See the N541WG flight status page for this flight to view local times or setup timezone preferences in your user account.

Time Position Orientation Groundspeed Altitude Reporting Facility
EDT Latitude Longitude Course Direction KTS MPH feet Rate Location/Type
07:14PM 32.9522 -96.8278 102° East 154 177 1,800  Level FAA TRACON SMA TRACON (SMA)
07:14PM 32.9467 -96.7961 62° Northeast 200 230 2,000 360 Climbing FAA TRACON SMA TRACON (SMA)
07:15PM 32.9661 -96.7522 70° East 221 254 2,300 720 Climbing FAA TRACON SMA TRACON (SMA)
07:16PM 32.9786 -96.7108 71° East 219 252 3,000 2,100 Climbing FAA TRACON SMA TRACON (SMA)
07:16PM 32.9922 -96.6628 359° North 216 249 5,100 2,760 Climbing FAA TRACON SMA TRACON (SMA)
07:17PM 33.0233 -96.6633 329° Northwest 205 236 6,800 2,340 Climbing FAA TRACON SMA TRACON (SMA)
07:18PM 33.0622 -96.6908 319° Northwest 227 261 8,300 2,100 Climbing FAA TRACON SMA TRACON (SMA)
07:18PM 33.0967 -96.7269 318° Northwest 269 310 9,600 2,280 Climbing FAA TRACON SMA TRACON (SMA)
07:19PM 33.1344 -96.7669 297° West 273 314 11,400 2,580 Climbing FAA TRACON SMA TRACON (SMA)
07:20PM 33.1581 -96.8233 289° West 278 320 13,100 1,860 Climbing FAA TRACON SMA TRACON (SMA)
07:20PM 33.1739 -96.8781 321° Northwest 289 333 13,900 660 Climbing FAA TRACON SMA TRACON (SMA)
07:21PM 33.2208 -96.9236 326° Northwest 314 361 14,000 780 Climbing FAA TRACON SMA TRACON (SMA)
07:22PM 33.2700 -96.9636 328° Northwest 306 352 15,000 1,320 Climbing FAA TRACON SMA TRACON (SMA)
07:22PM 33.3131 -96.9964 326° Northwest 302 348 15,800 1,500 Climbing FAA TRACON SMA TRACON (SMA)
07:23PM 33.3631 -97.0372 326° Northwest 313 360 17,000 2,040 Climbing FAA TRACON SMA TRACON (SMA)
07:24PM 33.4150 -97.0797 335° Northwest 327 376 18,500 2,040 Climbing FAA TRACON SMA TRACON (SMA)
07:24PM 33.4661 -97.1086 North 337 388 19,700 1,980 Climbing FAA TRACON SMA TRACON (SMA)
07:25PM 33.5342 -97.1025 North 358 412 21,200 2,100 Climbing FAA TRACON SMA TRACON (SMA)
07:26PM 33.6022 -97.0953 North 355 409 22,600 2,100 Climbing FAA TRACON SMA TRACON (SMA)
07:26PM 33.6703 -97.0869 North 354 407 24,000 1,740 Climbing FAA TRACON SMA TRACON (SMA)
07:27PM 33.7617 -97.0772 North 358 412 25,500 1,500 Climbing FAA TRACON SMA TRACON (SMA)
07:28PM 33.8331 -97.0667 North 374 430 26,500 1,500 Climbing FAA TRACON SMA TRACON (SMA)
07:28PM 33.8869 -97.0581 North 366 421 27,300 960 Climbing Fort Worth Center
07:29PM 33.9933 -97.0428 North 378 435 28,000 300 Climbing Fort Worth Center
07:30PM 34.0997 -97.0297 North 391 450 28,000  Level Fort Worth Center
07:31PM 34.2019 -97.0142 North 386 444 28,000  Level Fort Worth Center
07:32PM 34.3144 -97.0011 North 392 451 28,000  Level Fort Worth Center
07:33PM 34.4189 -96.9956 359° North 386 444 28,000  Level Fort Worth Center
07:34PM 34.5211 -96.9978 359° North 376 433 28,000  Level Fort Worth Center
07:35PM 34.6275 -96.9997 358° North 370 426 28,000  Level Fort Worth Center
07:36PM 34.7381 -97.0042 358° North 381 438 28,000  Level Fort Worth Center
07:37PM 34.8486 -97.0086 358° North 387 445 28,000  Level Fort Worth Center
07:38PM 34.9614 -97.0133 359° North 392 451 28,000  Level Fort Worth Center
07:39PM 35.0781 -97.0153 358° North 392 451 28,000  Level Fort Worth Center
07:43PM 35.4853 -97.0286 358° North 395 455 28,000  Level Kansas City Center
07:44PM 35.5958 -97.0322 359° North 395 455 28,000  Level Kansas City Center
07:45PM 35.7022 -97.0356 357° North 390 449 28,000  Level Kansas City Center
07:46PM 35.8208 -97.0419 358° North 384 442 28,000  Level Kansas City Center
07:47PM 35.9294 -97.0456 357° North 384 442 28,000 -180 Level Kansas City Center
07:48PM 36.0378 -97.0517 359° North 384 442 27,700 -900 Descending Kansas City Center
07:49PM 36.1461 -97.0550 359° North 384 442 26,200 -1,560 Descending Kansas City Center
07:50PM 36.2503 -97.0583 358° North 384 442 24,600 -1,560 Descending Kansas City Center
07:51PM 36.3525 -97.0617 358° North 378 435 23,100 -1,500 Descending Kansas City Center
07:52PM 36.4506 -97.0650 358° North 360 414 21,600 -1,380 Descending Kansas City Center
07:53PM 36.5381 -97.0681 358° North 355 409 20,400 -1,380 Descending Kansas City Center
07:54PM 36.6381 -97.0714 351° North 355 409 18,900 -1,620 Descending Kansas City Center
07:55PM 36.7317 -97.0900 343° North 350 403 17,200 -1,620 Descending Kansas City Center
07:56PM 36.8228 -97.1242 340° North 339 390 15,700 -1,620 Descending Kansas City Center
07:57PM 36.9197 -97.1689 346° North 334 384 14,000 -1,680 Descending Kansas City Center
07:58PM 37.0108 -97.1981 342° North 334 384 12,400 -1,560 Descending Kansas City Center
07:59PM 37.0978 -97.2325 343° North 334 384 10,900 -1,500 Descending Kansas City Center
08:00PM 37.1783 -97.2639 345° North 323 372 9,400 -1,500 Descending Kansas City Center
08:01PM 37.2592 -97.2903 343° North 302 348 7,900 -1,260 Descending Kansas City Center
08:02PM 37.3336 -97.3192 344° North 291 335 6,900 -1,020 Descending Kansas City Center
08:03PM 37.4058 -97.3456 North 275 316 5,900 -1,020 Descending Kansas City Center
08:04PM 37.4833 -97.3378 358° North 270 311 4,900 -1,200 Descending Kansas City Center
08:05PM 37.5542 -97.3406 336° Northwest 264 304 3,600 -1,080 Descending Kansas City Center
08:06PM 37.6097 -97.3714 340° North 241 277 2,800 -840 Descending Kansas City Center
08:07PM 37.6592 -97.3942 287° West 209 241 2,000 -720 Descending Kansas City Center
08:08PM 37.6650 -97.4181 287° West 141 162 1,400 -600 Descending Kansas City Center